createdAt,value
2019-01-20T00:00:15.716Z,-5.20
2019-01-20T00:02:56.699Z,-5.30
2019-01-20T00:05:38.568Z,-5.30
2019-01-20T00:08:19.822Z,-5.40
2019-01-20T00:11:01.265Z,-5.40
2019-01-20T00:13:42.747Z,-5.40
2019-01-20T00:16:23.928Z,-5.40
2019-01-20T00:19:05.067Z,-5.40
2019-01-20T00:21:44.379Z,-5.40
2019-01-20T00:24:25.615Z,-5.40
2019-01-20T00:27:06.559Z,-5.40
2019-01-20T00:29:48.343Z,-5.30
2019-01-20T00:32:29.920Z,-5.50
2019-01-20T00:35:11.161Z,-5.40
2019-01-20T00:37:52.038Z,-5.40
2019-01-20T00:40:33.678Z,-5.40
2019-01-20T00:43:14.543Z,-5.40
2019-01-20T00:45:55.431Z,-5.40
2019-01-20T00:48:36.282Z,-5.40
2019-01-20T00:51:17.944Z,-5.50
2019-01-20T00:53:59.297Z,-5.50
2019-01-20T00:56:40.104Z,-5.50
2019-01-20T00:59:21.630Z,-5.50
2019-01-20T01:02:02.913Z,-5.50
2019-01-20T01:04:44.090Z,-5.40
2019-01-20T01:07:25.608Z,-5.40
2019-01-20T01:10:06.757Z,-5.40
2019-01-20T01:12:47.602Z,-5.40
2019-01-20T01:15:28.790Z,-5.40
2019-01-20T01:18:10.126Z,-5.40
2019-01-20T01:20:51.467Z,-5.40
2019-01-20T01:23:33.232Z,-5.40
2019-01-20T01:26:14.389Z,-5.40
2019-01-20T01:28:56.238Z,-5.40
2019-01-20T01:31:37.489Z,-5.40
2019-01-20T01:34:18.308Z,-5.30
2019-01-20T01:36:59.755Z,-5.30
2019-01-20T01:39:40.658Z,-5.30
2019-01-20T01:42:21.557Z,-5.30
2019-01-20T01:45:03.411Z,-5.30
2019-01-20T01:47:45.310Z,-5.30
2019-01-20T01:50:26.401Z,-5.30
2019-01-20T01:53:07.272Z,-5.30
2019-01-20T01:55:48.457Z,-5.30
2019-01-20T01:58:29.650Z,-5.30
2019-01-20T02:01:10.386Z,-5.30
2019-01-20T02:03:51.339Z,-5.30
2019-01-20T02:06:31.960Z,-5.40
2019-01-20T02:09:13.052Z,-5.30
2019-01-20T02:11:54.621Z,-5.20
2019-01-20T02:14:36.445Z,-5.30
2019-01-20T02:17:17.872Z,-5.30
2019-01-20T02:19:58.786Z,-5.30
2019-01-20T02:22:39.639Z,-5.30
2019-01-20T02:25:20.940Z,-5.20
2019-01-20T02:28:02.368Z,-5.20
2019-01-20T02:30:43.290Z,-5.10
2019-01-20T02:33:24.844Z,-5.20
2019-01-20T02:36:05.816Z,-5.20
2019-01-20T02:38:46.688Z,-5.20
2019-01-20T02:41:28.088Z,-5.20
2019-01-20T02:44:09.233Z,-5.20
2019-01-20T02:46:50.652Z,-5.20
2019-01-20T02:49:32.006Z,-5.20
2019-01-20T02:52:13.084Z,-5.20
2019-01-20T02:54:54.681Z,-5.20
2019-01-20T02:57:35.985Z,-5.20
2019-01-20T03:00:17.233Z,-5.20
2019-01-20T03:02:56.813Z,-5.20
2019-01-20T03:05:45.085Z,-5.20
2019-01-20T03:08:25.873Z,-5.20
2019-01-20T03:11:06.488Z,-5.20
2019-01-20T03:13:47.251Z,-5.20
2019-01-20T03:16:27.900Z,-5.20
2019-01-20T03:19:08.787Z,-5.20
2019-01-20T03:21:50.440Z,-5.20
2019-01-20T03:24:31.780Z,-5.20
2019-01-20T03:27:12.368Z,-5.30
2019-01-20T03:29:53.259Z,-5.20
2019-01-20T03:32:34.504Z,-5.10
2019-01-20T03:35:14.398Z,-5.20
2019-01-20T03:37:55.665Z,-5.10
2019-01-20T03:40:35.026Z,-5.10
2019-01-20T03:43:15.883Z,-5.10
2019-01-20T03:45:57.059Z,-5.00
2019-01-20T03:48:36.355Z,-4.90
2019-01-20T03:51:17.448Z,-4.90
2019-01-20T03:53:58.051Z,-4.90
2019-01-20T03:56:38.636Z,-5.00
2019-01-20T03:59:19.489Z,-4.90
2019-01-20T04:02:00.415Z,-4.90
2019-01-20T04:04:39.979Z,-5.00
2019-01-20T04:07:29.300Z,-5.00
2019-01-20T04:10:10.795Z,-5.00
2019-01-20T04:12:50.409Z,-5.00
2019-01-20T04:15:31.718Z,-4.90
2019-01-20T04:18:12.793Z,-4.80
2019-01-20T04:20:53.617Z,-4.80
2019-01-20T04:23:32.928Z,-4.80
2019-01-20T04:26:21.451Z,-4.90
2019-01-20T04:29:03.127Z,-4.80
2019-01-20T04:31:44.631Z,-4.80
2019-01-20T04:34:25.475Z,-4.80
2019-01-20T04:37:06.950Z,-4.80
2019-01-20T04:39:48.142Z,-4.80
2019-01-20T04:42:29.663Z,-4.70
2019-01-20T04:45:11.027Z,-4.70
2019-01-20T04:47:50.417Z,-4.70
2019-01-20T04:50:31.320Z,-4.70
2019-01-20T04:53:12.178Z,-4.60
2019-01-20T04:55:53.192Z,-4.60
2019-01-20T04:58:35.163Z,-4.60
2019-01-20T05:01:16.608Z,-4.60
2019-01-20T05:03:57.912Z,-4.60
2019-01-20T05:06:38.634Z,-4.60
2019-01-20T05:09:20.195Z,-4.60
2019-01-20T05:12:01.183Z,-4.50
2019-01-20T05:14:42.886Z,-4.50
2019-01-20T05:17:23.859Z,-4.50
2019-01-20T05:20:04.551Z,-4.50
2019-01-20T05:22:45.221Z,-4.50
2019-01-20T05:25:25.219Z,-4.50
2019-01-20T05:28:06.455Z,-4.50
2019-01-20T05:30:47.121Z,-4.40
2019-01-20T05:33:28.842Z,-4.40
2019-01-20T05:36:10.015Z,-4.40
2019-01-20T05:38:50.553Z,-4.40
2019-01-20T05:41:31.463Z,-4.40
2019-01-20T05:44:12.308Z,-4.40
2019-01-20T05:46:53.695Z,-4.40
2019-01-20T05:49:35.019Z,-4.30
2019-01-20T05:52:16.020Z,-4.30
2019-01-20T05:54:55.343Z,-4.40
2019-01-20T05:57:37.171Z,-4.40
2019-01-20T06:00:18.723Z,-4.40
2019-01-20T06:03:00.307Z,-4.40
2019-01-20T06:05:40.880Z,-4.40
2019-01-20T06:08:22.271Z,-4.40
2019-01-20T06:11:03.352Z,-4.40
2019-01-20T06:13:44.919Z,-4.30
2019-01-20T06:16:26.379Z,-4.30
2019-01-20T06:19:06.008Z,-4.30
2019-01-20T06:21:47.256Z,-4.30
2019-01-20T06:24:28.233Z,-4.30
2019-01-20T06:27:09.628Z,-4.30
2019-01-20T06:29:51.112Z,-4.30
2019-01-20T06:32:32.209Z,-4.30
2019-01-20T06:35:13.308Z,-4.20
2019-01-20T06:37:54.008Z,-4.20
2019-01-20T06:40:34.876Z,-4.20
2019-01-20T06:43:16.774Z,-4.20
2019-01-20T06:45:58.287Z,-4.10
2019-01-20T06:48:39.075Z,-4.20
2019-01-20T06:51:18.582Z,-4.20
2019-01-20T06:53:59.383Z,-4.10
2019-01-20T06:56:40.184Z,-4.10
2019-01-20T06:59:21.589Z,-4.10
2019-01-20T07:02:02.474Z,-4.10
2019-01-20T07:04:41.975Z,-4.20
2019-01-20T07:07:30.807Z,-4.10
2019-01-20T07:10:10.621Z,-4.10
2019-01-20T07:12:59.676Z,-4.10
2019-01-20T07:15:41.282Z,-4.10
2019-01-20T07:18:22.428Z,-4.10
2019-01-20T07:21:03.063Z,-4.00
2019-01-20T07:23:43.766Z,-4.00
2019-01-20T07:26:24.338Z,-3.90
2019-01-20T07:29:05.624Z,-3.80
2019-01-20T07:31:46.995Z,-3.80
2019-01-20T07:34:28.763Z,-3.70
2019-01-20T07:37:10.425Z,-3.70
2019-01-20T07:39:51.618Z,-3.60
2019-01-20T07:42:33.067Z,-3.70
2019-01-20T07:45:14.858Z,-3.70
2019-01-20T07:47:55.677Z,-3.60
2019-01-20T07:50:36.579Z,-3.60
2019-01-20T07:53:17.995Z,-3.60
2019-01-20T07:55:58.636Z,-3.50
2019-01-20T07:58:40.004Z,-3.40
2019-01-20T08:01:21.156Z,-3.40
2019-01-20T08:04:02.665Z,-3.40
2019-01-20T08:06:43.328Z,-3.30
2019-01-20T08:09:24.086Z,-3.20
2019-01-20T08:12:05.655Z,-3.20
2019-01-20T08:14:46.867Z,-3.20
2019-01-20T08:17:28.144Z,-3.20
2019-01-20T08:20:09.434Z,-3.20
2019-01-20T08:22:49.148Z,-3.10
2019-01-20T08:25:37.748Z,-3.10
2019-01-20T08:28:19.077Z,-3.10
2019-01-20T08:31:00.590Z,-3.00
2019-01-20T08:33:41.575Z,-3.00
2019-01-20T08:36:23.237Z,-3.00
2019-01-20T08:39:04.996Z,-3.00
2019-01-20T08:41:45.864Z,-3.00
2019-01-20T08:44:26.768Z,-3.00
2019-01-20T08:47:08.144Z,-2.90
2019-01-20T08:49:49.018Z,-2.80
2019-01-20T08:52:30.435Z,-2.80
2019-01-20T08:55:12.067Z,-2.80
2019-01-20T08:57:53.193Z,-2.70
2019-01-20T09:00:34.166Z,-2.70
2019-01-20T09:03:15.350Z,-2.60
2019-01-20T09:05:56.950Z,-2.60
2019-01-20T09:08:38.388Z,-2.60
2019-01-20T09:11:18.473Z,-2.60
2019-01-20T09:13:59.970Z,-2.50
2019-01-20T09:16:40.650Z,-2.50
2019-01-20T09:19:21.513Z,-2.50
2019-01-20T09:22:02.948Z,-2.40
2019-01-20T09:24:44.551Z,-2.40
2019-01-20T09:27:24.383Z,-2.40
2019-01-20T09:30:14.902Z,-2.40
2019-01-20T09:32:56.003Z,-2.40
2019-01-20T09:35:37.511Z,-2.40
2019-01-20T09:38:18.588Z,-2.30
2019-01-20T09:40:59.844Z,-2.30
2019-01-20T09:43:47.147Z,-2.30
2019-01-20T09:46:24.579Z,-2.30
2019-01-20T09:49:05.586Z,-2.30
2019-01-20T09:51:47.252Z,-2.20
2019-01-20T09:54:29.020Z,-2.20
2019-01-20T09:57:10.435Z,-2.20
2019-01-20T09:59:51.734Z,-2.10
2019-01-20T10:02:33.376Z,-2.00
2019-01-20T10:05:14.624Z,-1.90
2019-01-20T10:07:55.158Z,-1.80
2019-01-20T10:10:36.821Z,-1.80
2019-01-20T10:13:18.386Z,-1.70
2019-01-20T10:16:00.494Z,-1.60
2019-01-20T10:18:41.431Z,-1.50
2019-01-20T10:21:21.200Z,-1.40
2019-01-20T10:24:00.590Z,-1.40
2019-01-20T10:26:41.977Z,-1.30
2019-01-20T10:29:23.225Z,-1.20
2019-01-20T10:32:04.289Z,-1.10
2019-01-20T10:34:46.083Z,-1.20
2019-01-20T10:37:27.189Z,-1.00
2019-01-20T10:40:08.841Z,-1.00
2019-01-20T10:42:50.277Z,-1.00
2019-01-20T10:45:31.918Z,-1.00
2019-01-20T10:48:12.618Z,-1.00
2019-01-20T10:50:53.222Z,-1.00
2019-01-20T10:53:33.891Z,-1.00
2019-01-20T10:56:15.496Z,-0.90
2019-01-20T10:58:56.116Z,-0.80
2019-01-20T11:01:35.939Z,-0.80
2019-01-20T11:04:17.742Z,-0.80
2019-01-20T11:06:58.967Z,-0.80
2019-01-20T11:09:39.856Z,-0.80
2019-01-20T11:12:20.866Z,-0.70
2019-01-20T11:15:02.146Z,-0.80
2019-01-20T11:17:43.325Z,-0.80
2019-01-20T11:20:24.750Z,-0.70
2019-01-20T11:23:04.579Z,-0.70
2019-01-20T11:25:53.121Z,-0.70
2019-01-20T11:28:34.497Z,-0.70
2019-01-20T11:31:16.556Z,-0.60
2019-01-20T11:33:57.621Z,-0.60
2019-01-20T11:36:38.970Z,-0.50
2019-01-20T11:39:20.376Z,-0.40
2019-01-20T11:42:01.937Z,-0.50
2019-01-20T11:44:43.636Z,-0.40
2019-01-20T11:47:24.849Z,-0.40
2019-01-20T11:50:07.011Z,-0.40
2019-01-20T11:52:48.406Z,-0.40
2019-01-20T11:55:29.951Z,-0.40
2019-01-20T11:58:11.115Z,-0.30
2019-01-20T12:00:52.779Z,-0.20
2019-01-20T12:03:34.097Z,-0.30
2019-01-20T12:06:15.382Z,-0.20
2019-01-20T12:08:54.814Z,-0.20
2019-01-20T12:11:54.161Z,-0.20
2019-01-20T12:14:35.362Z,-0.20
2019-01-20T12:17:16.436Z,-0.20
2019-01-20T12:19:56.556Z,-0.20
2019-01-20T12:22:37.883Z,-0.30
2019-01-20T12:25:19.507Z,-0.20
2019-01-20T12:28:00.833Z,-0.20
2019-01-20T12:30:42.858Z,-0.10
2019-01-20T12:33:24.718Z,-0.10
2019-01-20T12:36:05.644Z,0.00
2019-01-20T12:38:46.370Z,0.10
2019-01-20T12:41:27.313Z,0.10
2019-01-20T12:44:06.677Z,0.10
2019-01-20T12:46:48.441Z,0.10
2019-01-20T12:49:29.435Z,0.00
2019-01-20T12:52:10.662Z,0.00
2019-01-20T12:54:50.109Z,0.00
2019-01-20T12:57:30.911Z,0.00
2019-01-20T13:00:12.370Z,-0.10
2019-01-20T13:02:53.763Z,-0.10
2019-01-20T13:05:35.279Z,-0.10
2019-01-20T13:08:16.487Z,-0.20
2019-01-20T13:10:57.307Z,-0.20
2019-01-20T13:13:38.183Z,-0.30
2019-01-20T13:16:19.175Z,-0.30
2019-01-20T13:18:59.844Z,-0.40
2019-01-20T13:21:40.770Z,-0.40
2019-01-20T13:24:21.667Z,-0.50
2019-01-20T13:27:02.292Z,-0.50
2019-01-20T13:29:43.155Z,-0.50
2019-01-20T13:32:24.591Z,-0.50
2019-01-20T13:35:06.204Z,-0.40
2019-01-20T13:37:47.690Z,-0.40
2019-01-20T13:40:28.768Z,-0.40
2019-01-20T13:43:10.641Z,-0.40
2019-01-20T13:45:52.362Z,-0.40
2019-01-20T13:48:33.665Z,-0.40
2019-01-20T13:51:14.535Z,-0.50
2019-01-20T13:53:55.256Z,-0.50
2019-01-20T13:56:36.263Z,-0.40
2019-01-20T13:59:17.371Z,-0.50
2019-01-20T14:01:58.790Z,-0.50
2019-01-20T14:04:39.898Z,-0.50
2019-01-20T14:07:20.935Z,-0.50
2019-01-20T14:10:02.334Z,-0.50
2019-01-20T14:12:44.115Z,-0.50
2019-01-20T14:15:24.019Z,-0.60
2019-01-20T14:18:12.705Z,-0.60
2019-01-20T14:20:53.527Z,-0.60
2019-01-20T14:23:34.850Z,-0.60
2019-01-20T14:26:16.615Z,-0.60
2019-01-20T14:28:57.838Z,-0.60
2019-01-20T14:31:39.579Z,-0.70
2019-01-20T14:34:20.636Z,-0.70
2019-01-20T14:37:01.860Z,-0.70
2019-01-20T14:39:42.896Z,-0.80
2019-01-20T14:42:24.740Z,-0.80
2019-01-20T14:45:05.688Z,-0.90
2019-01-20T14:47:47.123Z,-0.90
2019-01-20T14:50:28.784Z,-1.00
2019-01-20T14:53:10.274Z,-1.00
2019-01-20T14:55:51.511Z,-1.10
2019-01-20T14:58:33.048Z,-1.10
2019-01-20T15:01:14.290Z,-1.20
2019-01-20T15:03:56.017Z,-1.20
2019-01-20T15:06:37.528Z,-1.30
2019-01-20T15:09:18.413Z,-1.40
2019-01-20T15:11:58.104Z,-1.50
2019-01-20T15:14:39.108Z,-1.50
2019-01-20T15:17:20.477Z,-1.60
2019-01-20T15:20:01.458Z,-1.70
2019-01-20T15:22:43.426Z,-1.70
2019-01-20T15:25:24.114Z,-1.80
2019-01-20T15:28:05.205Z,-1.90
2019-01-20T15:30:46.912Z,-1.90
2019-01-20T15:33:28.823Z,-2.00
2019-01-20T15:36:09.599Z,-2.00
2019-01-20T15:38:50.164Z,-2.10
2019-01-20T15:41:31.266Z,-2.20
2019-01-20T15:44:12.145Z,-2.10
2019-01-20T15:46:53.685Z,-2.20
2019-01-20T15:49:35.283Z,-2.30
2019-01-20T15:52:16.860Z,-2.30
2019-01-20T15:54:56.318Z,-2.40
2019-01-20T15:57:37.872Z,-2.40
2019-01-20T16:00:19.242Z,-2.40
2019-01-20T16:03:00.786Z,-2.50
2019-01-20T16:05:41.940Z,-2.60
2019-01-20T16:08:23.376Z,-2.60
2019-01-20T16:11:05.048Z,-2.60
2019-01-20T16:13:46.385Z,-2.70
2019-01-20T16:16:27.497Z,-2.70
2019-01-20T16:19:08.984Z,-2.80
2019-01-20T16:21:50.631Z,-2.80
2019-01-20T16:24:31.585Z,-2.80
2019-01-20T16:27:12.446Z,-2.90
2019-01-20T16:29:53.991Z,-2.90
2019-01-20T16:32:35.330Z,-2.90
2019-01-20T16:35:16.075Z,-2.90
2019-01-20T16:37:57.866Z,-3.00
2019-01-20T16:40:38.998Z,-3.00
2019-01-20T16:43:20.177Z,-3.10
2019-01-20T16:46:01.185Z,-3.10
2019-01-20T16:48:42.165Z,-3.10
2019-01-20T16:51:24.222Z,-3.10
2019-01-20T16:54:05.176Z,-3.20
2019-01-20T16:56:46.443Z,-3.20
2019-01-20T16:59:27.818Z,-3.30
2019-01-20T17:02:08.581Z,-3.30
2019-01-20T17:04:50.298Z,-3.40
2019-01-20T17:07:31.210Z,-3.40
2019-01-20T17:10:12.493Z,-3.40
2019-01-20T17:12:54.408Z,-3.50
2019-01-20T17:15:39.846Z,-3.50
2019-01-20T17:18:18.527Z,-3.60
2019-01-20T17:20:59.590Z,-3.60
2019-01-20T17:23:40.896Z,-3.60
2019-01-20T17:26:22.521Z,-3.70
2019-01-20T17:29:04.008Z,-3.70
2019-01-20T17:31:43.923Z,-3.70
2019-01-20T17:34:32.434Z,-3.80
2019-01-20T17:37:14.110Z,-3.80
2019-01-20T17:39:55.626Z,-3.80
2019-01-20T17:42:36.435Z,-3.90
2019-01-20T17:45:17.500Z,-3.90
2019-01-20T17:47:57.239Z,-3.90
2019-01-20T17:50:38.526Z,-3.90
2019-01-20T17:53:19.318Z,-3.90
2019-01-20T17:56:00.968Z,-3.90
2019-01-20T17:58:42.842Z,-4.00
2019-01-20T18:01:23.976Z,-4.00
2019-01-20T18:04:05.320Z,-4.00
2019-01-20T18:10:06.380Z,-4.10
2019-01-20T18:12:47.435Z,-4.10
2019-01-20T18:15:29.233Z,-4.20
2019-01-20T18:18:10.303Z,-4.30
2019-01-20T18:20:50.899Z,-4.30
2019-01-20T18:23:31.856Z,-4.30
2019-01-20T18:26:12.851Z,-4.30
2019-01-20T18:28:54.371Z,-4.40
2019-01-20T18:31:34.061Z,-4.50
2019-01-20T18:34:22.374Z,-4.40
2019-01-20T18:37:03.982Z,-4.50
2019-01-20T18:43:06.200Z,-4.50
2019-01-20T18:45:47.446Z,-4.60
2019-01-20T18:48:29.364Z,-4.60
2019-01-20T18:51:10.157Z,-4.70
2019-01-20T18:53:49.509Z,-4.70
2019-01-20T18:56:37.834Z,-4.80
2019-01-20T18:59:18.899Z,-4.80
2019-01-20T19:02:00.870Z,-4.80
2019-01-20T19:04:42.029Z,-4.80
2019-01-20T19:07:23.527Z,-4.90
2019-01-20T19:10:05.003Z,-4.90
2019-01-20T19:12:46.022Z,-4.90
2019-01-20T19:15:27.429Z,-5.00
2019-01-20T19:18:08.597Z,-5.00
2019-01-20T19:20:48.062Z,-5.00
2019-01-20T19:23:36.401Z,-5.10
2019-01-20T19:26:17.793Z,-5.10
2019-01-20T19:29:02.920Z,-5.10
2019-01-20T19:31:40.116Z,-5.10
2019-01-20T19:37:29.884Z,-5.10
2019-01-20T19:40:11.530Z,-5.20
2019-01-20T19:42:52.489Z,-5.10
2019-01-20T19:45:33.467Z,-5.10
2019-01-20T19:48:20.029Z,-5.20
2019-01-20T19:50:57.516Z,-5.20
2019-01-20T19:53:38.787Z,-5.20
2019-01-20T19:56:20.385Z,-5.30
2019-01-20T19:59:01.460Z,-5.30
2019-01-20T20:01:42.576Z,-5.40
2019-01-20T20:04:23.601Z,-5.40
2019-01-20T20:07:04.772Z,-5.40
2019-01-20T20:09:46.415Z,-5.40
2019-01-20T20:12:27.971Z,-5.40
2019-01-20T20:15:09.209Z,-5.50
2019-01-20T20:17:50.865Z,-5.40
2019-01-20T20:20:32.329Z,-5.40
2019-01-20T20:23:13.690Z,-5.40
2019-01-20T20:25:54.553Z,-5.40
2019-01-20T20:28:36.007Z,-5.50
2019-01-20T20:31:17.575Z,-5.50
2019-01-20T20:33:59.405Z,-5.50
2019-01-20T20:36:41.043Z,-5.60
2019-01-20T20:39:22.666Z,-5.60
2019-01-20T20:42:03.831Z,-5.60
2019-01-20T20:44:45.206Z,-5.70
2019-01-20T20:47:26.776Z,-5.60
2019-01-20T20:50:08.570Z,-5.70
2019-01-20T20:52:50.155Z,-5.80
2019-01-20T20:55:31.539Z,-5.70
2019-01-20T20:58:12.993Z,-5.80
2019-01-20T21:00:54.579Z,-5.90
2019-01-20T21:03:36.084Z,-5.90
2019-01-20T21:06:17.311Z,-5.80
2019-01-20T21:08:58.432Z,-5.90
2019-01-20T21:11:39.497Z,-5.90
2019-01-20T21:14:21.381Z,-6.00
2019-01-20T21:17:02.235Z,-6.00
2019-01-20T21:19:43.316Z,-6.10
2019-01-20T21:22:24.912Z,-6.10
2019-01-20T21:25:06.148Z,-6.20
2019-01-20T21:27:47.904Z,-6.20
2019-01-20T21:30:28.953Z,-6.20
2019-01-20T21:33:10.235Z,-6.20
2019-01-20T21:35:52.104Z,-6.20
2019-01-20T21:38:33.878Z,-6.20
2019-01-20T21:41:15.187Z,-6.20
2019-01-20T21:43:56.410Z,-6.20
2019-01-20T21:46:37.949Z,-6.30
2019-01-20T21:49:19.659Z,-6.30
2019-01-20T21:52:01.238Z,-6.40
2019-01-20T21:54:42.746Z,-6.40
2019-01-20T21:57:24.158Z,-6.40
2019-01-20T22:00:05.437Z,-6.40
2019-01-20T22:02:46.137Z,-6.30
2019-01-20T22:05:27.595Z,-6.30
2019-01-20T22:08:08.427Z,-6.40
2019-01-20T22:10:49.131Z,-6.40
2019-01-20T22:13:30.522Z,-6.40
2019-01-20T22:16:11.983Z,-6.50
2019-01-20T22:18:52.992Z,-6.40
2019-01-20T22:21:34.315Z,-6.50
2019-01-20T22:24:16.176Z,-6.50
2019-01-20T22:26:57.269Z,-6.60
2019-01-20T22:29:38.949Z,-6.50
2019-01-20T22:32:20.446Z,-6.50
2019-01-20T22:35:01.804Z,-6.50
2019-01-20T22:37:43.207Z,-6.50
2019-01-20T22:40:24.101Z,-6.50
2019-01-20T22:43:04.932Z,-6.60
2019-01-20T22:45:45.619Z,-6.60
2019-01-20T22:48:26.260Z,-6.60
2019-01-20T22:51:07.278Z,-6.60
2019-01-20T22:53:47.972Z,-6.60
2019-01-20T22:56:28.712Z,-6.70
2019-01-20T22:59:10.075Z,-6.70
2019-01-20T23:01:50.946Z,-6.70
2019-01-20T23:04:32.401Z,-6.70
2019-01-20T23:07:13.031Z,-6.60
2019-01-20T23:09:53.970Z,-6.70
2019-01-20T23:12:35.209Z,-6.60
2019-01-20T23:15:16.301Z,-6.70
2019-01-20T23:17:57.525Z,-6.70
2019-01-20T23:20:38.702Z,-6.70
2019-01-20T23:23:19.495Z,-6.80
2019-01-20T23:26:00.620Z,-6.70
2019-01-20T23:28:41.485Z,-6.70
2019-01-20T23:31:20.911Z,-6.80
2019-01-20T23:34:02.220Z,-6.70
2019-01-20T23:39:23.051Z,-6.80
2019-01-20T23:42:04.088Z,-6.90
2019-01-20T23:44:45.104Z,-6.90
2019-01-20T23:47:25.797Z,-7.00
2019-01-20T23:50:07.110Z,-7.10
2019-01-20T23:52:48.517Z,-7.10
2019-01-20T23:55:29.474Z,-7.10
2019-01-20T23:58:10.477Z,-7.10
